Adventure of The Seas — C6SA3 — position and weather

sailwx.info

Track history (hours):
 
Tides and Currents Weather Stations Pressure Air Temp Water Temp Dewpoint Dewpoint Depression Visibility Wind Speed Wind Dir Waves Ship Positions

Adventure of The Seas

Operator: Royal Caribbean Cruises Ltd

Last reported at 2015-May-18 07:33 UTC. Time now 2015-May-23 01:08 UTC.
Position N 17°38' W 063°08'.

Type: Passenger vessel. MMSI: 311263000.

Date/timePositionNaut miles runAvg speedWind from/ knotsBaromVisibWave heightAir tempDewpointWater temp
2015-May-18 07:33N 17°38' W 063°08'1010.2
2015-May-18 06:32N 17°46' W 063°15'8910.9
2015-May-17 22:18N 18°11' W 064°45'810.7
2015-May-17 21:33N 18°14' W 064°53'6 0.1
2015-May-16 02:26N 18°08' W 064°50'27214.4
2015-May-15 07:31N 14°48' W 061°38'1515.4
2015-May-15 06:34N 14°38' W 061°27'1515.2
2015-May-15 05:34N 14°28' W 061°14'1615.5
2015-May-15 04:31N 14°19' W 061°01'1515.5
2015-May-15 03:34N 14°09' W 060°49'29 1.0
2015-May-13 23:04N 13°47' W 061°07'7 8.6
2015-May-13 22:12N 13°54' W 061°07'5 8.4
2015-May-13 21:33N 13°59' W 061°04'5 4.5
2015-May-13 20:28N 14°01' W 060°60'0 0.0
2015-May-13 19:28N 14°01' W 060°60'0 0.0
2015-May-13 18:31N 14°01' W 060°60'0 0.0
2015-May-13 17:28N 14°01' W 060°60'0 0.0
2015-May-13 16:28N 14°01' W 060°60'0 0.0
2015-May-13 15:28N 14°01' W 060°60'0 0.0
2015-May-13 14:28N 14°01' W 060°60'0 0.0
2015-May-13 13:28N 14°01' W 060°60'0 0.0
2015-May-13 12:31N 14°01' W 060°60'0 0.0
2015-May-13 11:32N 14°01' W 060°60'7 7.3
2015-May-13 10:34N 14°05' W 061°05'1414.4
2015-May-13 09:33N 14°16' W 061°16'1716.7
2015-May-13 08:33N 14°30' W 061°25'  
2015-May-11 01:09N 17°42' W 063°07'5 8.5
2015-May-11 00:33N 17°47' W 063°07'9 8.7
2015-May-10 23:33N 17°56' W 063°06'6 1.2
2015-May-10 18:33N 18°01' W 063°03'0 0.0
2015-May-10 13:14N 18°01' W 063°03'0 0.3
2015-May-10 12:31N 18°01' W 063°03'1111.1
2015-May-10 11:33N 18°01' W 063°14'1514.6
2015-May-10 10:33N 18°03' W 063°29'1515.3
2015-May-10 09:32N 18°05' W 063°46'5617.9
2015-May-10 06:24N 18°11' W 064°44'12 0.4
2015-May-09 04:10N 18°13' W 064°56'1219.3
2015-May-09 03:32N 18°11' W 064°44'6018.2
2015-May-09 00:14N 18°05' W 063°41'1115.3
2015-May-08 23:32N 18°03' W 063°30'1515.3
2015-May-08 22:32N 18°01' W 063°14'10 0.9
2015-May-08 11:16N 18°00' W 063°03'8 7.8
2015-May-08 10:15N 17°55' W 062°57'  
Track history (hours):
 
Tides and Currents Weather Stations Pressure Air Temp Water Temp Dewpoint Dewpoint Depression Visibility Wind Speed Wind Dir Waves Ship Positions

Adventure of The Seas

Operator: Royal Caribbean Cruises Ltd

Last reported at 2015-May-18 07:33 UTC. Time now 2015-May-23 01:08 UTC.
Position N 17°38' W 063°08'.

Type: Passenger vessel. MMSI: 311263000.

Date/timePositionNaut miles runAvg speedWind from/ knotsBaromVisibWave heightAir tempDewpointWater temp
2015-May-18 07:33N 17°38' W 063°08'1010.2
2015-May-18 06:32N 17°46' W 063°15'8910.9
2015-May-17 22:18N 18°11' W 064°45'810.7
2015-May-17 21:33N 18°14' W 064°53'6 0.1
2015-May-16 02:26N 18°08' W 064°50'27214.4
2015-May-15 07:31N 14°48' W 061°38'1515.4
2015-May-15 06:34N 14°38' W 061°27'1515.2
2015-May-15 05:34N 14°28' W 061°14'1615.5
2015-May-15 04:31N 14°19' W 061°01'1515.5
2015-May-15 03:34N 14°09' W 060°49'29 1.0
2015-May-13 23:04N 13°47' W 061°07'7 8.6
2015-May-13 22:12N 13°54' W 061°07'5 8.4
2015-May-13 21:33N 13°59' W 061°04'5 4.5
2015-May-13 20:28N 14°01' W 060°60'0 0.0
2015-May-13 19:28N 14°01' W 060°60'0 0.0
2015-May-13 18:31N 14°01' W 060°60'0 0.0
2015-May-13 17:28N 14°01' W 060°60'0 0.0
2015-May-13 16:28N 14°01' W 060°60'0 0.0
2015-May-13 15:28N 14°01' W 060°60'0 0.0
2015-May-13 14:28N 14°01' W 060°60'0 0.0
2015-May-13 13:28N 14°01' W 060°60'0 0.0
2015-May-13 12:31N 14°01' W 060°60'0 0.0
2015-May-13 11:32N 14°01' W 060°60'7 7.3
2015-May-13 10:34N 14°05' W 061°05'1414.4
2015-May-13 09:33N 14°16' W 061°16'1716.7
2015-May-13 08:33N 14°30' W 061°25'  
2015-May-11 01:09N 17°42' W 063°07'5 8.5
2015-May-11 00:33N 17°47' W 063°07'9 8.7
2015-May-10 23:33N 17°56' W 063°06'6 1.2
2015-May-10 18:33N 18°01' W 063°03'0 0.0
2015-May-10 13:14N 18°01' W 063°03'0 0.3
2015-May-10 12:31N 18°01' W 063°03'1111.1
2015-May-10 11:33N 18°01' W 063°14'1514.6
2015-May-10 10:33N 18°03' W 063°29'1515.3
2015-May-10 09:32N 18°05' W 063°46'5617.9
2015-May-10 06:24N 18°11' W 064°44'12 0.4
2015-May-09 04:10N 18°13' W 064°56'1219.3
2015-May-09 03:32N 18°11' W 064°44'6018.2
2015-May-09 00:14N 18°05' W 063°41'1115.3
2015-May-08 23:32N 18°03' W 063°30'1515.3
2015-May-08 22:32N 18°01' W 063°14'10 0.9
2015-May-08 11:16N 18°00' W 063°03'8 7.8
2015-May-08 10:15N 17°55' W 062°57'  

Dump ship's entire track history